sensor_id;sensor_type;location;lat;lon;timestamp;temperature;humidity
32769;DHT22;23049;54.304;8.826;2023-08-31T00:00:08;14.50;99.90
32769;DHT22;23049;54.304;8.826;2023-08-31T00:02:35;14.50;99.90
32769;DHT22;23049;54.304;8.826;2023-08-31T00:05:00;14.50;99.90
32769;DHT22;23049;54.304;8.826;2023-08-31T00:07:26;14.50;99.90
32769;DHT22;23049;54.304;8.826;2023-08-31T00:09:51;14.50;99.90
32769;DHT22;23049;54.304;8.826;2023-08-31T00:12:17;14.50;99.90
32769;DHT22;23049;54.304;8.826;2023-08-31T00:14:42;14.50;99.90
32769;DHT22;23049;54.304;8.826;2023-08-31T00:17:08;14.60;99.90
32769;DHT22;23049;54.304;8.826;2023-08-31T00:19:34;14.60;99.90
32769;DHT22;23049;54.304;8.826;2023-08-31T00:21:59;14.60;99.90
32769;DHT22;23049;54.304;8.826;2023-08-31T00:24:25;14.70;99.90
32769;DHT22;23049;54.304;8.826;2023-08-31T00:26:55;14.80;99.90
32769;DHT22;23049;54.304;8.826;2023-08-31T00:29:20;14.80;99.90
32769;DHT22;23049;54.304;8.826;2023-08-31T00:31:46;14.80;99.90
32769;DHT22;23049;54.304;8.826;2023-08-31T00:34:13;14.90;99.90
32769;DHT22;23049;54.304;8.826;2023-08-31T00:36:40;14.90;99.90
32769;DHT22;23049;54.304;8.826;2023-08-31T00:39:05;14.90;99.90
32769;DHT22;23049;54.304;8.826;2023-08-31T00:41:31;15.00;99.90
32769;DHT22;23049;54.304;8.826;2023-08-31T00:43:57;15.00;99.90
32769;DHT22;23049;54.304;8.826;2023-08-31T00:46:24;15.00;99.90
32769;DHT22;23049;54.304;8.826;2023-08-31T00:48:49;15.00;99.90
32769;DHT22;23049;54.304;8.826;2023-08-31T00:51:15;15.10;99.90
32769;DHT22;23049;54.304;8.826;2023-08-31T00:53:40;15.10;99.90
32769;DHT22;23049;54.304;8.826;2023-08-31T00:56:07;15.00;99.90
32769;DHT22;23049;54.304;8.826;2023-08-31T00:58:33;15.00;99.90
32769;DHT22;23049;54.304;8.826;2023-08-31T01:05:59;14.60;99.90
32769;DHT22;23049;54.304;8.826;2023-08-31T01:13:38;14.50;99.90
32769;DHT22;23049;54.304;8.826;2023-08-31T01:16:06;14.60;99.90
32769;DHT22;23049;54.304;8.826;2023-08-31T01:18:33;14.60;99.90
32769;DHT22;23049;54.304;8.826;2023-08-31T01:23:49;14.50;99.90
32769;DHT22;23049;54.304;8.826;2023-08-31T01:26:14;14.50;99.90
32769;DHT22;23049;54.304;8.826;2023-08-31T01:28:40;14.40;99.90
32769;DHT22;23049;54.304;8.826;2023-08-31T01:31:05;14.30;99.90
32769;DHT22;23049;54.304;8.826;2023-08-31T01:33:31;14.30;99.90
32769;DHT22;23049;54.304;8.826;2023-08-31T01:35:56;14.30;99.90
32769;DHT22;23049;54.304;8.826;2023-08-31T01:38:25;14.20;99.90
32769;DHT22;23049;54.304;8.826;2023-08-31T01:40:56;14.20;99.90
32769;DHT22;23049;54.304;8.826;2023-08-31T01:43:23;14.20;99.90
32769;DHT22;23049;54.304;8.826;2023-08-31T01:45:49;14.20;99.90
32769;DHT22;23049;54.304;8.826;2023-08-31T01:48:15;14.30;99.90
32769;DHT22;23049;54.304;8.826;2023-08-31T01:51:29;14.30;99.90
32769;DHT22;23049;54.304;8.826;2023-08-31T01:53:54;14.40;99.90
32769;DHT22;23049;54.304;8.826;2023-08-31T01:56:19;14.40;99.90
32769;DHT22;23049;54.304;8.826;2023-08-31T01:58:46;14.40;99.90
32769;DHT22;23049;54.304;8.826;2023-08-31T02:01:12;14.30;99.90
32769;DHT22;23049;54.304;8.826;2023-08-31T02:03:37;14.30;99.90
32769;DHT22;23049;54.304;8.826;2023-08-31T02:06:03;14.20;99.90
32769;DHT22;23049;54.304;8.826;2023-08-31T02:08:29;14.30;99.90
32769;DHT22;23049;54.304;8.826;2023-08-31T02:10:54;14.30;99.90
32769;DHT22;23049;54.304;8.826;2023-08-31T02:13:20;14.40;99.90
32769;DHT22;23049;54.304;8.826;2023-08-31T02:15:45;14.30;99.90
32769;DHT22;23049;54.304;8.826;2023-08-31T02:18:11;14.40;99.90
32769;DHT22;23049;54.304;8.826;2023-08-31T02:20:36;14.50;99.90
32769;DHT22;23049;54.304;8.826;2023-08-31T02:23:02;14.60;99.90
32769;DHT22;23049;54.304;8.826;2023-08-31T02:25:28;14.80;99.90
32769;DHT22;23049;54.304;8.826;2023-08-31T02:27:54;14.90;99.90
32769;DHT22;23049;54.304;8.826;2023-08-31T02:30:19;14.90;99.90
32769;DHT22;23049;54.304;8.826;2023-08-31T02:32:45;14.90;99.90
32769;DHT22;23049;54.304;8.826;2023-08-31T02:35:10;14.90;99.90
32769;DHT22;23049;54.304;8.826;2023-08-31T02:37:37;14.90;99.90
32769;DHT22;23049;54.304;8.826;2023-08-31T02:40:03;15.00;99.90
32769;DHT22;23049;54.304;8.826;2023-08-31T02:42:29;15.10;99.90
32769;DHT22;23049;54.304;8.826;2023-08-31T02:44:54;15.10;99.90
32769;DHT22;23049;54.304;8.826;2023-08-31T02:47:20;15.00;99.90
32769;DHT22;23049;54.304;8.826;2023-08-31T02:49:45;14.90;99.90
32769;DHT22;23049;54.304;8.826;2023-08-31T02:52:13;14.80;99.90
32769;DHT22;23049;54.304;8.826;2023-08-31T02:54:38;14.70;99.90
32769;DHT22;23049;54.304;8.826;2023-08-31T02:57:04;14.70;99.90
32769;DHT22;23049;54.304;8.826;2023-08-31T02:59:29;14.60;99.90
32769;DHT22;23049;54.304;8.826;2023-08-31T03:01:55;14.60;99.90
32769;DHT22;23049;54.304;8.826;2023-08-31T03:04:20;14.60;99.90
32769;DHT22;23049;54.304;8.826;2023-08-31T03:06:46;14.50;99.90
32769;DHT22;23049;54.304;8.826;2023-08-31T03:09:12;14.50;99.90
32769;DHT22;23049;54.304;8.826;2023-08-31T03:11:38;14.50;99.90
32769;DHT22;23049;54.304;8.826;2023-08-31T03:14:04;14.50;99.90
32769;DHT22;23049;54.304;8.826;2023-08-31T03:16:29;14.40;99.90
32769;DHT22;23049;54.304;8.826;2023-08-31T03:21:27;14.10;99.90
32769;DHT22;23049;54.304;8.826;2023-08-31T03:23:53;14.10;99.90
32769;DHT22;23049;54.304;8.826;2023-08-31T03:26:18;14.00;99.90
32769;DHT22;23049;54.304;8.826;2023-08-31T03:28:44;14.00;99.90
32769;DHT22;23049;54.304;8.826;2023-08-31T03:31:09;14.00;99.90
32769;DHT22;23049;54.304;8.826;2023-08-31T03:33:38;13.90;99.90
32769;DHT22;23049;54.304;8.826;2023-08-31T03:36:03;13.90;99.90
32769;DHT22;23049;54.304;8.826;2023-08-31T03:38:30;13.70;99.90
32769;DHT22;23049;54.304;8.826;2023-08-31T03:40:56;13.70;99.90
32769;DHT22;23049;54.304;8.826;2023-08-31T03:43:22;13.70;99.90
32769;DHT22;23049;54.304;8.826;2023-08-31T03:45:48;13.70;99.90
32769;DHT22;23049;54.304;8.826;2023-08-31T03:48:14;13.70;99.90
32769;DHT22;23049;54.304;8.826;2023-08-31T03:50:40;13.60;99.90
32769;DHT22;23049;54.304;8.826;2023-08-31T03:53:05;13.60;99.90
32769;DHT22;23049;54.304;8.826;2023-08-31T03:55:31;13.60;99.90
32769;DHT22;23049;54.304;8.826;2023-08-31T03:57:56;13.60;99.90
32769;DHT22;23049;54.304;8.826;2023-08-31T04:00:22;13.60;99.90
32769;DHT22;23049;54.304;8.826;2023-08-31T04:02:47;13.60;99.90
32769;DHT22;23049;54.304;8.826;2023-08-31T04:05:13;13.60;99.90
32769;DHT22;23049;54.304;8.826;2023-08-31T04:07:41;13.60;99.90
32769;DHT22;23049;54.304;8.826;2023-08-31T04:10:06;13.60;99.90
32769;DHT22;23049;54.304;8.826;2023-08-31T04:12:33;13.60;99.90
32769;DHT22;23049;54.304;8.826;2023-08-31T04:15:00;13.60;99.90
32769;DHT22;23049;54.304;8.826;2023-08-31T04:17:25;13.70;99.90
32769;DHT22;23049;54.304;8.826;2023-08-31T04:19:51;13.70;99.90
32769;DHT22;23049;54.304;8.826;2023-08-31T04:22:16;13.60;99.90
32769;DHT22;23049;54.304;8.826;2023-08-31T04:24:42;13.40;99.90
32769;DHT22;23049;54.304;8.826;2023-08-31T04:27:08;13.10;99.90
32769;DHT22;23049;54.304;8.826;2023-08-31T04:29:33;13.00;99.90
32769;DHT22;23049;54.304;8.826;2023-08-31T04:31:59;12.90;99.90
32769;DHT22;23049;54.304;8.826;2023-08-31T04:34:24;12.90;99.90
32769;DHT22;23049;54.304;8.826;2023-08-31T04:36:50;12.80;99.90
32769;DHT22;23049;54.304;8.826;2023-08-31T04:39:15;12.80;99.90
32769;DHT22;23049;54.304;8.826;2023-08-31T04:41:41;13.00;99.90
32769;DHT22;23049;54.304;8.826;2023-08-31T04:44:06;13.10;99.90
32769;DHT22;23049;54.304;8.826;2023-08-31T04:46:32;13.00;99.90
32769;DHT22;23049;54.304;8.826;2023-08-31T04:48:59;12.80;99.90
32769;DHT22;23049;54.304;8.826;2023-08-31T04:51:31;12.80;99.90
32769;DHT22;23049;54.304;8.826;2023-08-31T04:53:58;13.00;99.90
32769;DHT22;23049;54.304;8.826;2023-08-31T04:56:23;13.30;99.90
32769;DHT22;23049;54.304;8.826;2023-08-31T04:58:49;13.50;99.90
32769;DHT22;23049;54.304;8.826;2023-08-31T05:01:14;13.60;99.90
32769;DHT22;23049;54.304;8.826;2023-08-31T05:03:41;13.70;99.90
32769;DHT22;23049;54.304;8.826;2023-08-31T05:06:07;13.80;99.90
32769;DHT22;23049;54.304;8.826;2023-08-31T05:08:33;13.80;99.90
32769;DHT22;23049;54.304;8.826;2023-08-31T05:10:59;13.70;99.90
32769;DHT22;23049;54.304;8.826;2023-08-31T05:13:24;13.80;99.90
32769;DHT22;23049;54.304;8.826;2023-08-31T05:15:50;13.80;99.90
32769;DHT22;23049;54.304;8.826;2023-08-31T05:18:15;13.80;99.90
32769;DHT22;23049;54.304;8.826;2023-08-31T05:20:44;13.80;99.90
32769;DHT22;23049;54.304;8.826;2023-08-31T05:23:10;13.70;99.90
32769;DHT22;23049;54.304;8.826;2023-08-31T05:25:35;13.70;99.90
32769;DHT22;23049;54.304;8.826;2023-08-31T05:28:01;13.80;99.90
32769;DHT22;23049;54.304;8.826;2023-08-31T05:30:26;14.00;99.90
32769;DHT22;23049;54.304;8.826;2023-08-31T05:32:53;14.20;99.90
32769;DHT22;23049;54.304;8.826;2023-08-31T05:35:18;14.20;99.90
32769;DHT22;23049;54.304;8.826;2023-08-31T05:37:44;14.30;99.90
32769;DHT22;23049;54.304;8.826;2023-08-31T05:40:09;14.30;99.90
32769;DHT22;23049;54.304;8.826;2023-08-31T05:42:36;14.40;99.90
32769;DHT22;23049;54.304;8.826;2023-08-31T05:45:01;14.30;99.90
32769;DHT22;23049;54.304;8.826;2023-08-31T05:47:27;14.30;99.90
32769;DHT22;23049;54.304;8.826;2023-08-31T05:49:52;14.30;99.90
32769;DHT22;23049;54.304;8.826;2023-08-31T05:52:18;14.40;99.90
32769;DHT22;23049;54.304;8.826;2023-08-31T05:54:43;14.40;99.90
32769;DHT22;23049;54.304;8.826;2023-08-31T05:57:09;14.40;99.90
32769;DHT22;23049;54.304;8.826;2023-08-31T05:59:34;14.50;99.90
32769;DHT22;23049;54.304;8.826;2023-08-31T06:02:00;14.60;99.90
32769;DHT22;23049;54.304;8.826;2023-08-31T06:04:25;14.70;99.90
32769;DHT22;23049;54.304;8.826;2023-08-31T06:06:51;14.70;99.90
32769;DHT22;23049;54.304;8.826;2023-08-31T06:09:19;14.70;99.90
32769;DHT22;23049;54.304;8.826;2023-08-31T06:11:45;14.70;99.90
32769;DHT22;23049;54.304;8.826;2023-08-31T06:14:11;14.70;99.90
32769;DHT22;23049;54.304;8.826;2023-08-31T06:16:36;14.70;99.90
32769;DHT22;23049;54.304;8.826;2023-08-31T06:19:02;14.70;99.90
32769;DHT22;23049;54.304;8.826;2023-08-31T06:21:28;14.70;99.90
32769;DHT22;23049;54.304;8.826;2023-08-31T06:23:54;14.70;99.90
32769;DHT22;23049;54.304;8.826;2023-08-31T06:26:19;14.80;99.90
32769;DHT22;23049;54.304;8.826;2023-08-31T06:28:45;14.80;99.90
32769;DHT22;23049;54.304;8.826;2023-08-31T06:31:10;14.90;99.90
32769;DHT22;23049;54.304;8.826;2023-08-31T06:33:36;15.00;99.90
32769;DHT22;23049;54.304;8.826;2023-08-31T06:36:01;15.10;99.90
32769;DHT22;23049;54.304;8.826;2023-08-31T06:38:27;15.10;99.90
32769;DHT22;23049;54.304;8.826;2023-08-31T06:43:25;15.20;99.90
32769;DHT22;23049;54.304;8.826;2023-08-31T06:45:53;15.20;99.90
32769;DHT22;23049;54.304;8.826;2023-08-31T06:48:19;15.30;99.90
32769;DHT22;23049;54.304;8.826;2023-08-31T06:50:46;15.40;99.90
32769;DHT22;23049;54.304;8.826;2023-08-31T06:53:12;15.40;99.90
32769;DHT22;23049;54.304;8.826;2023-08-31T06:55:37;15.60;99.90
32769;DHT22;23049;54.304;8.826;2023-08-31T06:58:04;15.80;99.90
32769;DHT22;23049;54.304;8.826;2023-08-31T07:00:30;16.00;99.90
32769;DHT22;23049;54.304;8.826;2023-08-31T07:02:57;16.00;99.90
32769;DHT22;23049;54.304;8.826;2023-08-31T07:05:24;16.10;99.90
32769;DHT22;23049;54.304;8.826;2023-08-31T07:07:54;16.20;99.90
32769;DHT22;23049;54.304;8.826;2023-08-31T07:10:20;16.20;99.90
32769;DHT22;23049;54.304;8.826;2023-08-31T07:12:45;16.10;99.90
32769;DHT22;23049;54.304;8.826;2023-08-31T07:15:11;16.00;99.90
32769;DHT22;23049;54.304;8.826;2023-08-31T07:17:36;15.90;99.90
32769;DHT22;23049;54.304;8.826;2023-08-31T07:20:02;15.90;99.90
32769;DHT22;23049;54.304;8.826;2023-08-31T07:22:32;15.80;99.90
32769;DHT22;23049;54.304;8.826;2023-08-31T07:24:58;15.60;99.90
32769;DHT22;23049;54.304;8.826;2023-08-31T07:27:23;15.50;99.90
32769;DHT22;23049;54.304;8.826;2023-08-31T07:29:49;15.50;99.90
32769;DHT22;23049;54.304;8.826;2023-08-31T07:32:14;15.60;99.90
32769;DHT22;23049;54.304;8.826;2023-08-31T07:34:39;15.80;99.90
32769;DHT22;23049;54.304;8.826;2023-08-31T07:37:05;16.00;99.90
32769;DHT22;23049;54.304;8.826;2023-08-31T07:39:31;16.00;99.90
32769;DHT22;23049;54.304;8.826;2023-08-31T07:41:57;16.10;99.90
32769;DHT22;23049;54.304;8.826;2023-08-31T07:44:23;16.20;99.90
32769;DHT22;23049;54.304;8.826;2023-08-31T07:46:48;16.30;99.90
32769;DHT22;23049;54.304;8.826;2023-08-31T07:49:14;16.20;99.90
32769;DHT22;23049;54.304;8.826;2023-08-31T07:51:39;16.20;99.90
32769;DHT22;23049;54.304;8.826;2023-08-31T07:54:05;16.30;99.90
32769;DHT22;23049;54.304;8.826;2023-08-31T07:56:30;16.30;99.90
32769;DHT22;23049;54.304;8.826;2023-08-31T07:58:56;16.40;99.90
32769;DHT22;23049;54.304;8.826;2023-08-31T08:01:21;16.40;99.90
32769;DHT22;23049;54.304;8.826;2023-08-31T08:03:47;16.50;99.90
32769;DHT22;23049;54.304;8.826;2023-08-31T08:06:12;16.60;99.90
32769;DHT22;23049;54.304;8.826;2023-08-31T08:08:39;16.60;99.90
32769;DHT22;23049;54.304;8.826;2023-08-31T08:11:04;16.70;99.90
32769;DHT22;23049;54.304;8.826;2023-08-31T08:13:30;16.90;99.90
32769;DHT22;23049;54.304;8.826;2023-08-31T08:15:55;17.00;99.90
32769;DHT22;23049;54.304;8.826;2023-08-31T08:18:21;17.20;99.90
32769;DHT22;23049;54.304;8.826;2023-08-31T08:20:47;16.60;99.90
32769;DHT22;23049;54.304;8.826;2023-08-31T08:23:12;16.50;99.90
32769;DHT22;23049;54.304;8.826;2023-08-31T08:25:38;16.30;99.90
32769;DHT22;23049;54.304;8.826;2023-08-31T08:28:03;16.20;99.90
32769;DHT22;23049;54.304;8.826;2023-08-31T08:30:29;16.10;99.90
32769;DHT22;23049;54.304;8.826;2023-08-31T08:32:55;15.90;99.90
32769;DHT22;23049;54.304;8.826;2023-08-31T08:35:20;16.00;99.90
32769;DHT22;23049;54.304;8.826;2023-08-31T08:37:46;15.90;99.90
32769;DHT22;23049;54.304;8.826;2023-08-31T08:40:11;15.90;99.90
32769;DHT22;23049;54.304;8.826;2023-08-31T08:42:38;16.10;99.90
32769;DHT22;23049;54.304;8.826;2023-08-31T08:45:07;16.10;99.90
32769;DHT22;23049;54.304;8.826;2023-08-31T08:47:33;16.20;99.90
32769;DHT22;23049;54.304;8.826;2023-08-31T08:49:59;16.30;99.90
32769;DHT22;23049;54.304;8.826;2023-08-31T08:52:25;16.20;99.90
32769;DHT22;23049;54.304;8.826;2023-08-31T08:54:51;16.20;99.90
32769;DHT22;23049;54.304;8.826;2023-08-31T08:57:18;16.30;99.90
32769;DHT22;23049;54.304;8.826;2023-08-31T08:59:43;16.30;99.90
32769;DHT22;23049;54.304;8.826;2023-08-31T09:02:10;16.50;99.90
32769;DHT22;23049;54.304;8.826;2023-08-31T09:04:36;16.60;99.90
32769;DHT22;23049;54.304;8.826;2023-08-31T09:07:01;16.70;99.90
32769;DHT22;23049;54.304;8.826;2023-08-31T09:09:27;16.50;99.90
32769;DHT22;23049;54.304;8.826;2023-08-31T09:11:53;16.30;99.90
32769;DHT22;23049;54.304;8.826;2023-08-31T09:14:21;16.20;99.90
32769;DHT22;23049;54.304;8.826;2023-08-31T09:16:48;16.10;99.90
32769;DHT22;23049;54.304;8.826;2023-08-31T09:19:23;16.10;99.90
32769;DHT22;23049;54.304;8.826;2023-08-31T09:21:49;16.20;99.90
32769;DHT22;23049;54.304;8.826;2023-08-31T09:24:15;16.30;99.90
32769;DHT22;23049;54.304;8.826;2023-08-31T09:26:47;16.30;99.90
32769;DHT22;23049;54.304;8.826;2023-08-31T09:29:13;16.40;99.90
32769;DHT22;23049;54.304;8.826;2023-08-31T09:31:41;16.20;99.90
32769;DHT22;23049;54.304;8.826;2023-08-31T09:34:07;16.40;99.90
32769;DHT22;23049;54.304;8.826;2023-08-31T09:36:32;16.40;99.90
32769;DHT22;23049;54.304;8.826;2023-08-31T09:38:58;16.40;99.90
32769;DHT22;23049;54.304;8.826;2023-08-31T09:41:24;16.30;99.90
32769;DHT22;23049;54.304;8.826;2023-08-31T09:46:04;16.40;99.90
32769;DHT22;23049;54.304;8.826;2023-08-31T09:48:30;16.50;99.90
32769;DHT22;23049;54.304;8.826;2023-08-31T09:50:56;16.40;99.90
32769;DHT22;23049;54.304;8.826;2023-08-31T09:53:22;16.20;99.90
32769;DHT22;23049;54.304;8.826;2023-08-31T09:55:48;15.90;99.90
32769;DHT22;23049;54.304;8.826;2023-08-31T09:58:17;15.40;99.90
32769;DHT22;23049;54.304;8.826;2023-08-31T10:00:43;15.30;99.90
32769;DHT22;23049;54.304;8.826;2023-08-31T10:03:09;15.20;99.90
32769;DHT22;23049;54.304;8.826;2023-08-31T10:05:39;15.20;99.90
32769;DHT22;23049;54.304;8.826;2023-08-31T10:08:05;15.30;99.90
32769;DHT22;23049;54.304;8.826;2023-08-31T10:10:32;15.30;99.90
32769;DHT22;23049;54.304;8.826;2023-08-31T10:12:58;15.50;99.90
32769;DHT22;23049;54.304;8.826;2023-08-31T10:15:24;15.70;99.90
32769;DHT22;23049;54.304;8.826;2023-08-31T10:17:51;15.70;99.90
32769;DHT22;23049;54.304;8.826;2023-08-31T10:20:17;15.80;99.90
32769;DHT22;23049;54.304;8.826;2023-08-31T10:22:43;15.70;99.90
32769;DHT22;23049;54.304;8.826;2023-08-31T10:25:09;15.80;99.90
32769;DHT22;23049;54.304;8.826;2023-08-31T10:27:40;16.00;99.90
32769;DHT22;23049;54.304;8.826;2023-08-31T10:34:42;16.40;99.90
32769;DHT22;23049;54.304;8.826;2023-08-31T10:37:21;16.60;99.90
32769;DHT22;23049;54.304;8.826;2023-08-31T10:39:47;16.40;99.90
32769;DHT22;23049;54.304;8.826;2023-08-31T10:42:13;16.50;99.90
32769;DHT22;23049;54.304;8.826;2023-08-31T10:44:41;16.70;99.90
32769;DHT22;23049;54.304;8.826;2023-08-31T10:47:07;16.90;99.90
32769;DHT22;23049;54.304;8.826;2023-08-31T10:49:33;17.10;99.90
32769;DHT22;23049;54.304;8.826;2023-08-31T10:52:15;17.50;99.90
32769;DHT22;23049;54.304;8.826;2023-08-31T10:54:42;17.40;99.90
32769;DHT22;23049;54.304;8.826;2023-08-31T10:57:08;17.50;99.90
32769;DHT22;23049;54.304;8.826;2023-08-31T10:59:49;17.40;99.90
32769;DHT22;23049;54.304;8.826;2023-08-31T11:02:58;17.60;99.90
32769;DHT22;23049;54.304;8.826;2023-08-31T11:05:11;17.70;99.90
32769;DHT22;23049;54.304;8.826;2023-08-31T11:07:38;17.90;99.90
32769;DHT22;23049;54.304;8.826;2023-08-31T11:10:07;17.80;99.90
32769;DHT22;23049;54.304;8.826;2023-08-31T11:12:34;17.80;99.90
32769;DHT22;23049;54.304;8.826;2023-08-31T11:15:00;17.90;99.90
32769;DHT22;23049;54.304;8.826;2023-08-31T11:17:25;18.00;99.90
32769;DHT22;23049;54.304;8.826;2023-08-31T11:19:51;18.10;99.90
32769;DHT22;23049;54.304;8.826;2023-08-31T11:22:16;18.00;99.90
32769;DHT22;23049;54.304;8.826;2023-08-31T11:24:42;18.00;99.90
32769;DHT22;23049;54.304;8.826;2023-08-31T11:27:08;18.00;99.90
32769;DHT22;23049;54.304;8.826;2023-08-31T11:29:36;18.10;99.90
32769;DHT22;23049;54.304;8.826;2023-08-31T11:32:02;18.20;99.90
32769;DHT22;23049;54.304;8.826;2023-08-31T11:34:27;18.20;99.90
32769;DHT22;23049;54.304;8.826;2023-08-31T11:36:53;18.40;99.90
32769;DHT22;23049;54.304;8.826;2023-08-31T11:39:18;18.30;99.90
32769;DHT22;23049;54.304;8.826;2023-08-31T11:41:44;18.40;99.90
32769;DHT22;23049;54.304;8.826;2023-08-31T11:44:11;18.50;99.90
32769;DHT22;23049;54.304;8.826;2023-08-31T11:46:37;18.70;99.90
32769;DHT22;23049;54.304;8.826;2023-08-31T11:49:03;18.90;99.90
32769;DHT22;23049;54.304;8.826;2023-08-31T11:51:33;18.90;99.90
32769;DHT22;23049;54.304;8.826;2023-08-31T11:54:00;19.00;99.90
32769;DHT22;23049;54.304;8.826;2023-08-31T11:56:28;19.10;99.90
32769;DHT22;23049;54.304;8.826;2023-08-31T12:01:07;19.10;99.90
32769;DHT22;23049;54.304;8.826;2023-08-31T12:03:43;19.20;99.90
32769;DHT22;23049;54.304;8.826;2023-08-31T12:06:09;19.20;99.90
32769;DHT22;23049;54.304;8.826;2023-08-31T12:08:36;19.30;99.90
32769;DHT22;23049;54.304;8.826;2023-08-31T12:11:02;19.40;99.90
32769;DHT22;23049;54.304;8.826;2023-08-31T12:13:27;19.30;99.90
32769;DHT22;23049;54.304;8.826;2023-08-31T12:15:57;19.40;99.90
32769;DHT22;23049;54.304;8.826;2023-08-31T12:18:22;19.60;99.90
32769;DHT22;23049;54.304;8.826;2023-08-31T12:20:52;19.70;99.90
32769;DHT22;23049;54.304;8.826;2023-08-31T12:23:18;19.70;99.90
32769;DHT22;23049;54.304;8.826;2023-08-31T12:25:50;19.40;99.90
32769;DHT22;23049;54.304;8.826;2023-08-31T12:30:51;19.60;99.90
32769;DHT22;23049;54.304;8.826;2023-08-31T12:33:17;19.50;99.90
32769;DHT22;23049;54.304;8.826;2023-08-31T12:35:43;19.60;99.90
32769;DHT22;23049;54.304;8.826;2023-08-31T12:38:09;19.30;99.90
32769;DHT22;23049;54.304;8.826;2023-08-31T12:40:35;19.00;99.90
32769;DHT22;23049;54.304;8.826;2023-08-31T12:43:00;18.80;99.90
32769;DHT22;23049;54.304;8.826;2023-08-31T12:45:26;18.50;99.90
32769;DHT22;23049;54.304;8.826;2023-08-31T12:47:51;18.30;99.90
32769;DHT22;23049;54.304;8.826;2023-08-31T12:50:17;18.10;99.90
32769;DHT22;23049;54.304;8.826;2023-08-31T12:52:43;18.00;99.90
32769;DHT22;23049;54.304;8.826;2023-08-31T12:55:12;17.90;99.90
32769;DHT22;23049;54.304;8.826;2023-08-31T12:57:37;17.70;99.90
32769;DHT22;23049;54.304;8.826;2023-08-31T13:00:03;17.60;99.90
32769;DHT22;23049;54.304;8.826;2023-08-31T13:02:30;17.50;99.90
32769;DHT22;23049;54.304;8.826;2023-08-31T13:04:56;17.50;99.90
32769;DHT22;23049;54.304;8.826;2023-08-31T13:07:21;17.40;99.90
32769;DHT22;23049;54.304;8.826;2023-08-31T13:09:47;17.30;99.90
32769;DHT22;23049;54.304;8.826;2023-08-31T13:12:12;17.20;99.90
32769;DHT22;23049;54.304;8.826;2023-08-31T13:14:38;17.10;99.90
32769;DHT22;23049;54.304;8.826;2023-08-31T13:17:04;17.10;99.90
32769;DHT22;23049;54.304;8.826;2023-08-31T13:19:30;17.20;99.90
32769;DHT22;23049;54.304;8.826;2023-08-31T13:21:56;17.40;99.90
32769;DHT22;23049;54.304;8.826;2023-08-31T13:24:21;17.70;99.90
32769;DHT22;23049;54.304;8.826;2023-08-31T13:26:46;17.90;99.90
32769;DHT22;23049;54.304;8.826;2023-08-31T13:29:14;18.10;99.90
32769;DHT22;23049;54.304;8.826;2023-08-31T13:31:40;18.10;99.90
32769;DHT22;23049;54.304;8.826;2023-08-31T13:34:05;18.10;99.90
32769;DHT22;23049;54.304;8.826;2023-08-31T13:36:34;18.10;99.90
32769;DHT22;23049;54.304;8.826;2023-08-31T13:41:12;18.20;99.90
32769;DHT22;23049;54.304;8.826;2023-08-31T13:45:52;18.00;99.90
32769;DHT22;23049;54.304;8.826;2023-08-31T13:50:30;18.20;99.90
32769;DHT22;23049;54.304;8.826;2023-08-31T13:52:55;18.20;99.90
32769;DHT22;23049;54.304;8.826;2023-08-31T13:55:21;18.30;99.90
32769;DHT22;23049;54.304;8.826;2023-08-31T13:57:47;18.30;99.90
32769;DHT22;23049;54.304;8.826;2023-08-31T14:00:13;18.20;99.90
32769;DHT22;23049;54.304;8.826;2023-08-31T14:02:38;18.30;99.90
32769;DHT22;23049;54.304;8.826;2023-08-31T14:05:04;18.40;99.90
32769;DHT22;23049;54.304;8.826;2023-08-31T14:07:32;18.60;99.90
32769;DHT22;23049;54.304;8.826;2023-08-31T14:09:58;18.80;99.90
32769;DHT22;23049;54.304;8.826;2023-08-31T14:12:23;18.80;99.90
32769;DHT22;23049;54.304;8.826;2023-08-31T14:14:51;18.70;99.90
32769;DHT22;23049;54.304;8.826;2023-08-31T14:17:16;18.40;99.90
32769;DHT22;23049;54.304;8.826;2023-08-31T14:19:42;18.30;99.90
32769;DHT22;23049;54.304;8.826;2023-08-31T14:22:07;18.10;99.90
32769;DHT22;23049;54.304;8.826;2023-08-31T14:24:35;18.00;99.90
32769;DHT22;23049;54.304;8.826;2023-08-31T14:27:02;17.90;99.90
32769;DHT22;23049;54.304;8.826;2023-08-31T14:29:28;17.80;99.90
32769;DHT22;23049;54.304;8.826;2023-08-31T14:31:53;17.80;99.90
32769;DHT22;23049;54.304;8.826;2023-08-31T14:34:19;18.00;99.90
32769;DHT22;23049;54.304;8.826;2023-08-31T14:36:45;18.40;99.90
32769;DHT22;23049;54.304;8.826;2023-08-31T14:39:10;18.60;99.90
32769;DHT22;23049;54.304;8.826;2023-08-31T14:41:36;18.80;99.90
32769;DHT22;23049;54.304;8.826;2023-08-31T14:44:01;18.70;99.90
32769;DHT22;23049;54.304;8.826;2023-08-31T14:46:27;18.60;99.90
32769;DHT22;23049;54.304;8.826;2023-08-31T14:48:53;18.70;99.90
32769;DHT22;23049;54.304;8.826;2023-08-31T14:51:18;18.80;99.90
32769;DHT22;23049;54.304;8.826;2023-08-31T14:53:44;19.00;99.90
32769;DHT22;23049;54.304;8.826;2023-08-31T14:56:09;19.00;99.90
32769;DHT22;23049;54.304;8.826;2023-08-31T14:58:34;19.10;99.90
32769;DHT22;23049;54.304;8.826;2023-08-31T15:04:20;19.00;99.90
32769;DHT22;23049;54.304;8.826;2023-08-31T15:06:46;19.20;99.90
32769;DHT22;23049;54.304;8.826;2023-08-31T15:09:11;19.10;99.90
32769;DHT22;23049;54.304;8.826;2023-08-31T15:13:57;19.00;99.90
32769;DHT22;23049;54.304;8.826;2023-08-31T15:18:43;18.80;99.90
32769;DHT22;23049;54.304;8.826;2023-08-31T15:21:10;18.50;99.90
32769;DHT22;23049;54.304;8.826;2023-08-31T15:23:35;18.30;99.90
32769;DHT22;23049;54.304;8.826;2023-08-31T15:26:01;18.10;99.90
32769;DHT22;23049;54.304;8.826;2023-08-31T15:28:28;18.00;99.90
32769;DHT22;23049;54.304;8.826;2023-08-31T15:30:53;17.90;99.90
32769;DHT22;23049;54.304;8.826;2023-08-31T15:33:19;17.80;99.90
32769;DHT22;23049;54.304;8.826;2023-08-31T15:35:44;17.80;99.90
32769;DHT22;23049;54.304;8.826;2023-08-31T15:40:48;17.80;99.90
32769;DHT22;23049;54.304;8.826;2023-08-31T15:43:14;17.90;99.90
32769;DHT22;23049;54.304;8.826;2023-08-31T15:45:44;18.10;99.90
32769;DHT22;23049;54.304;8.826;2023-08-31T15:48:10;18.20;99.90
32769;DHT22;23049;54.304;8.826;2023-08-31T15:50:36;18.20;99.90
32769;DHT22;23049;54.304;8.826;2023-08-31T15:53:02;18.20;99.90
32769;DHT22;23049;54.304;8.826;2023-08-31T15:55:28;18.20;99.90
32769;DHT22;23049;54.304;8.826;2023-08-31T15:57:53;18.20;99.90
32769;DHT22;23049;54.304;8.826;2023-08-31T16:00:19;18.20;99.90
32769;DHT22;23049;54.304;8.826;2023-08-31T16:02:47;18.20;99.90
32769;DHT22;23049;54.304;8.826;2023-08-31T16:05:13;18.10;99.90
32769;DHT22;23049;54.304;8.826;2023-08-31T16:07:38;18.20;99.90
32769;DHT22;23049;54.304;8.826;2023-08-31T16:10:06;18.20;99.90